Time;durP1;ratioP1;P1;durP2;ratioP2;P2;SDS_P1;SDS_P2;PMS_P1;PMS_P2;Temp;Humidity;BMP_temperature;BMP_pressure;BME280_temperature;BME280_humidity;BME280_pressure;Samples;Min_cycle;Max_cycle;Signal;HPM_P1;HPM_P2
2023/06/09 00:00:11;;;;;;;;;;;;;;;19.42;57.06;101304.09;5049823;28;1101;-74
2023/06/09 00:02:38;;;;;;;;;;;;;;;19.41;57.12;101309.81;5049520;28;1575;-74
2023/06/09 00:05:05;;;;;;;;;;;;;;;19.38;57.20;101311.16;5031163;28;1192;-74
2023/06/09 00:07:33;;;;;;;;;;;;;;;19.38;57.47;101318.53;5049565;28;983;-73
2023/06/09 00:10:00;;;;;;;;;;;;;;;19.37;57.43;101316.88;5049773;28;1189;-74
2023/06/09 00:12:26;;;;;;;;;;;;;;;19.36;57.11;101315.25;5048954;28;1906;-74
2023/06/09 00:14:53;;;;;;;;;;;;;;;19.35;57.48;101328.06;5050282;28;976;-74
2023/06/09 00:17:19;;;;;;;;;;;;;;;19.34;57.10;101325.59;5031456;28;1269;-73
2023/06/09 00:19:46;;;;;;;;;;;;;;;19.33;57.11;101334.88;5049497;28;1097;-74
2023/06/09 00:22:13;;;;;;;;;;;;;;;19.32;57.05;101334.03;5030961;28;1695;-74
2023/06/09 00:24:40;;;;;;;;;;;;;;;19.31;57.01;101335.13;5033102;28;1174;-74
2023/06/09 00:27:08;;;;;;;;;;;;;;;19.29;57.20;101329.09;5050667;28;1073;-74
2023/06/09 00:29:35;;;;;;;;;;;;;;;19.27;57.17;101326.66;5052333;28;1504;-73
2023/06/09 00:32:01;;;;;;;;;;;;;;;19.28;57.37;101332.94;5048361;28;1914;-73
2023/06/09 00:34:28;;;;;;;;;;;;;;;19.26;57.32;101326.88;5045865;28;1018;-73
2023/06/09 00:36:55;;;;;;;;;;;;;;;19.26;56.95;101330.44;5045770;28;1525;-73
2023/06/09 00:39:21;;;;;;;;;;;;;;;19.25;56.92;101333.44;5045728;28;1070;-75
2023/06/09 00:41:48;;;;;;;;;;;;;;;19.23;56.92;101336.41;5045493;28;1177;-73
2023/06/09 00:44:14;;;;;;;;;;;;;;;19.22;57.19;101337.50;5045709;28;1074;-74
2023/06/09 00:46:41;;;;;;;;;;;;;;;19.21;57.32;101335.88;5034912;28;1263;-74
2023/06/09 00:49:08;;;;;;;;;;;;;;;19.20;56.98;101342.41;5044505;28;1518;-74
2023/06/09 00:51:35;;;;;;;;;;;;;;;19.20;57.00;101336.13;5045933;28;1924;-73
2023/06/09 00:54:02;;;;;;;;;;;;;;;19.18;56.84;101352.78;5034962;28;1084;-73
2023/06/09 00:56:29;;;;;;;;;;;;;;;19.17;57.19;101353.03;5034174;28;1506;-73
2023/06/09 00:58:55;;;;;;;;;;;;;;;19.15;56.89;101353.28;5033079;28;1168;-74
2023/06/09 01:01:22;;;;;;;;;;;;;;;19.16;57.05;101367.75;5034196;28;1153;-74
2023/06/09 01:03:48;;;;;;;;;;;;;;;19.14;57.12;101359.00;5045243;28;1046;-74
2023/06/09 01:06:16;;;;;;;;;;;;;;;19.12;57.17;101361.16;5045340;28;1614;-74
2023/06/09 01:08:44;;;;;;;;;;;;;;;19.11;57.06;101370.44;5045586;28;975;-74
2023/06/09 01:11:10;;;;;;;;;;;;;;;19.11;57.14;101375.88;5045146;28;1026;-73
2023/06/09 01:13:37;;;;;;;;;;;;;;;19.10;56.87;101379.72;5044827;28;1906;-74
2023/06/09 01:16:04;;;;;;;;;;;;;;;19.08;56.80;101376.41;5045823;28;1423;-73
2023/06/09 01:18:30;;;;;;;;;;;;;;;19.05;57.11;101381.28;5032660;28;1043;-73
2023/06/09 01:20:57;;;;;;;;;;;;;;;19.06;57.04;101390.31;5044378;28;1602;-75
2023/06/09 01:23:24;;;;;;;;;;;;;;;19.03;56.74;101386.19;5033406;28;1026;-74
2023/06/09 01:25:52;;;;;;;;;;;;;;;19.03;56.65;101388.94;5044730;28;2011;-75
2023/06/09 01:28:20;;;;;;;;;;;;;;;19.01;56.91;101391.09;5044351;28;1132;-75
2023/06/09 01:30:49;;;;;;;;;;;;;;;19.00;56.69;101388.59;5045078;28;987;-75
2023/06/09 01:33:15;;;;;;;;;;;;;;;18.99;56.63;101401.41;5015693;28;1979;-73
2023/06/09 01:35:42;;;;;;;;;;;;;;;18.98;56.97;101407.16;5032611;28;1130;-74
2023/06/09 01:38:08;;;;;;;;;;;;;;;18.97;56.87;101402.75;5030581;28;1094;-74
2023/06/09 01:40:35;;;;;;;;;;;;;;;18.96;56.97;101404.66;5031356;28;1050;-75
2023/06/09 01:43:01;;;;;;;;;;;;;;;18.95;56.92;101413.94;5015716;28;1557;-74
2023/06/09 01:45:28;;;;;;;;;;;;;;;18.94;56.88;101412.31;5031768;28;1004;-74
2023/06/09 01:47:54;;;;;;;;;;;;;;;18.94;56.93;101416.91;5032558;28;1027;-74
2023/06/09 01:50:21;;;;;;;;;;;;;;;18.91;56.62;101420.97;5029964;28;1071;-74
2023/06/09 01:52:47;;;;;;;;;;;;;;;18.90;56.75;101419.34;5032087;28;1910;-73
2023/06/09 01:55:14;;;;;;;;;;;;;;;18.89;56.56;101422.34;5031927;28;1008;-75
2023/06/09 01:57:41;;;;;;;;;;;;;;;18.88;56.93;101426.94;5007344;28;1354;-75
2023/06/09 02:00:08;;;;;;;;;;;;;;;18.87;56.69;101419.84;5030577;28;1035;-74
2023/06/09 02:02:35;;;;;;;;;;;;;;;18.85;56.57;101424.72;5030079;28;1552;-74
2023/06/09 02:05:02;;;;;;;;;;;;;;;18.84;56.76;101434.00;5007707;28;1156;-73
2023/06/09 02:07:30;;;;;;;;;;;;;;;18.84;56.60;101437.53;5007838;28;1129;-74
2023/06/09 02:09:56;;;;;;;;;;;;;;;18.82;56.40;101442.44;5030537;28;1043;-74
2023/06/09 02:12:23;;;;;;;;;;;;;;;18.82;56.59;101438.88;5022655;28;1906;-74
2023/06/09 02:14:50;;;;;;;;;;;;;;;18.80;56.65;101444.59;5031306;28;1016;-73
2023/06/09 02:17:17;;;;;;;;;;;;;;;18.80;56.68;101446.50;5031088;28;992;-74
2023/06/09 02:19:45;;;;;;;;;;;;;;;18.77;56.73;101445.09;5008305;28;1427;-73
2023/06/09 02:22:11;;;;;;;;;;;;;;;18.76;56.71;101451.63;5006621;28;1459;-74
2023/06/09 02:24:38;;;;;;;;;;;;;;;18.74;56.52;101456.53;5032184;28;1012;-75
2023/06/09 02:27:05;;;;;;;;;;;;;;;18.74;56.69;101461.16;5007669;28;1233;-75
2023/06/09 02:29:31;;;;;;;;;;;;;;;18.74;56.64;101458.44;5007262;28;1161;-73
2023/06/09 02:31:58;;;;;;;;;;;;;;;18.72;56.45;101466.81;5036764;28;1981;-74
2023/06/09 02:34:25;;;;;;;;;;;;;;;18.71;56.49;101469.81;5043236;28;1097;-74
2023/06/09 02:36:54;;;;;;;;;;;;;;;18.69;56.75;101475.50;5032708;28;1282;-74
2023/06/09 02:39:20;;;;;;;;;;;;;;;18.69;56.50;101480.16;5032948;28;1177;-74
2023/06/09 02:41:47;;;;;;;;;;;;;;;18.67;56.60;101482.28;5043657;28;1518;-74
2023/06/09 02:44:13;;;;;;;;;;;;;;;18.65;56.54;101482.56;5032676;28;1450;-74
2023/06/09 02:46:40;;;;;;;;;;;;;;;18.65;56.53;101478.97;5043528;28;1069;-74
2023/06/09 02:49:06;;;;;;;;;;;;;;;18.63;56.53;101476.53;5042666;28;1137;-74
2023/06/09 02:51:33;;;;;;;;;;;;;;;18.63;56.30;101483.88;5043189;28;1511;-74
2023/06/09 02:53:59;;;;;;;;;;;;;;;18.61;56.35;101487.66;5043442;28;1910;-74
2023/06/09 02:56:26;;;;;;;;;;;;;;;18.59;56.59;101483.56;5032929;28;1721;-74
2023/06/09 02:58:53;;;;;;;;;;;;;;;18.57;56.55;101492.00;5032465;28;1018;-74
2023/06/09 03:01:20;;;;;;;;;;;;;;;18.58;56.29;101490.09;5030261;28;1485;-75
2023/06/09 03:03:46;;;;;;;;;;;;;;;18.56;56.42;101493.06;5043297;28;1441;-74
2023/06/09 03:06:14;;;;;;;;;;;;;;;18.55;56.52;101496.84;5042964;28;1073;-75
2023/06/09 03:08:40;;;;;;;;;;;;;;;18.54;56.38;101503.41;5042802;28;1215;-74
2023/06/09 03:11:07;;;;;;;;;;;;;;;18.53;56.32;101504.50;5048094;28;1719;-74
2023/06/09 03:13:33;;;;;;;;;;;;;;;18.52;56.37;101507.44;5032015;28;1906;-74
2023/06/09 03:16:00;;;;;;;;;;;;;;;18.50;56.42;101510.44;5043326;28;1022;-74
2023/06/09 03:18:27;;;;;;;;;;;;;;;18.49;56.24;101521.59;5043497;28;1187;-75
2023/06/09 03:20:55;;;;;;;;;;;;;;;18.48;56.14;101522.69;5030964;28;1448;-74
2023/06/09 03:23:21;;;;;;;;;;;;;;;18.48;56.06;101534.41;5042602;28;1153;-74
2023/06/09 03:25:49;;;;;;;;;;;;;;;18.46;56.10;101539.28;5049527;28;1438;-74
2023/06/09 03:28:16;;;;;;;;;;;;;;;18.45;56.42;101540.34;5043215;28;1031;-73
2023/06/09 03:30:42;;;;;;;;;;;;;;;18.46;56.28;101535.72;5042371;28;1586;-73
2023/06/09 03:33:11;;;;;;;;;;;;;;;18.44;55.96;101546.88;5037960;28;1910;-73
2023/06/09 03:35:37;;;;;;;;;;;;;;;18.42;56.14;101542.75;5042597;28;1129;-73
2023/06/09 03:38:03;;;;;;;;;;;;;;;18.41;55.92;101552.00;5031104;28;945;-75
2023/06/09 03:40:30;;;;;;;;;;;;;;;18.40;56.13;101545.72;5031116;28;1660;-73
2023/06/09 03:42:57;;;;;;;;;;;;;;;18.39;55.89;101549.53;5042945;28;1563;-75
2023/06/09 03:45:23;;;;;;;;;;;;;;;18.38;56.22;101545.13;5032574;28;1034;-73
2023/06/09 03:47:50;;;;;;;;;;;;;;;18.37;56.02;101544.31;5041631;28;1082;-74
2023/06/09 03:50:16;;;;;;;;;;;;;;;18.36;56.10;101552.75;5042303;28;1550;-74
2023/06/09 03:52:43;;;;;;;;;;;;;;;18.36;56.06;101553.56;5042107;28;1977;-74
2023/06/09 03:55:10;;;;;;;;;;;;;;;18.35;56.23;101551.09;5041766;28;1253;-74
2023/06/09 03:57:36;;;;;;;;;;;;;;;18.32;56.03;101559.75;5042745;28;1299;-74
2023/06/09 04:00:03;;;;;;;;;;;;;;;18.30;56.12;101551.84;5043617;28;1507;-74
2023/06/09 04:02:30;;;;;;;;;;;;;;;18.31;56.10;101556.22;5032911;28;1098;-74
2023/06/09 04:04:57;;;;;;;;;;;;;;;18.30;56.00;101559.19;5046432;28;999;-75
2023/06/09 04:07:23;;;;;;;;;;;;;;;18.29;56.04;101560.25;5045770;28;1205;-74
2023/06/09 04:09:50;;;;;;;;;;;;;;;18.30;55.95;101561.94;5036048;28;1086;-74
2023/06/09 04:12:16;;;;;;;;;;;;;;;18.26;56.01;101564.28;5050220;28;1932;-75
2023/06/09 04:15:03;;;;;;;;;;;;;;;18.24;55.94;101561.00;5048480;28;944;-75
2023/06/09 04:17:50;;;;;;;;;;;;;;;18.24;55.76;101560.19;5047501;28;1106;-75
2023/06/09 04:20:34;;;;;;;;;;;;;;;18.23;55.80;101561.25;5036249;28;1501;-74
2023/06/09 04:23:20;;;;;;;;;;;;;;;18.23;55.94;101567.53;5049429;28;1298;-73
2023/06/09 04:26:13;;;;;;;;;;;;;;;18.22;55.67;101570.50;5052512;28;1236;-75
2023/06/09 04:29:09;;;;;;;;;;;;;;;18.21;55.68;101574.31;5050946;28;1165;-76
2023/06/09 04:32:01;;;;;;;;;;;;;;;18.22;55.56;101573.22;5050299;28;1677;-73
2023/06/09 04:34:53;;;;;;;;;;;;;;;18.21;55.60;101577.03;5043512;28;1094;-75
2023/06/09 04:37:45;;;;;;;;;;;;;;;18.17;55.62;101582.13;5053210;28;1327;-74
2023/06/09 04:40:39;;;;;;;;;;;;;;;18.25;55.40;101584.47;5048146;28;1437;-74
2023/06/09 04:43:32;;;;;;;;;;;;;;;18.19;55.79;101590.09;5044881;28;1022;-74
2023/06/09 04:46:22;;;;;;;;;;;;;;;18.19;55.67;101592.81;5046952;28;1243;-73
2023/06/09 04:49:09;;;;;;;;;;;;;;;18.16;55.52;101591.41;5042553;28;1464;-73
2023/06/09 04:51:46;;;;;;;;;;;;;;;18.14;55.50;101599.81;5045913;28;1628;-74
2023/06/09 04:54:14;;;;;;;;;;;;;;;18.12;55.70;101599.25;5035141;28;1981;-74
2023/06/09 04:56:44;;;;;;;;;;;;;;;18.13;55.81;101600.06;5032600;28;1322;-74
2023/06/09 04:59:11;;;;;;;;;;;;;;;18.11;55.53;101596.75;5045181;28;1447;-74
2023/06/09 05:01:38;;;;;;;;;;;;;;;18.16;55.48;101599.56;5045574;28;890;-75
2023/06/09 05:04:05;;;;;;;;;;;;;;;18.12;55.41;101606.59;5046099;28;1093;-74
2023/06/09 05:06:32;;;;;;;;;;;;;;;18.10;55.74;101606.00;5045699;28;1285;-73
2023/06/09 05:08:58;;;;;;;;;;;;;;;18.08;55.75;101608.97;5032186;28;1477;-74
2023/06/09 05:11:25;;;;;;;;;;;;;;;18.17;55.00;101621.13;5045648;28;1022;-74
2023/06/09 05:13:52;;;;;;;;;;;;;;;18.11;55.25;101616.66;5034059;28;1973;-74
2023/06/09 05:16:21;;;;;;;;;;;;;;;18.14;55.21;101605.25;5045512;28;1011;-74
2023/06/09 05:18:47;;;;;;;;;;;;;;;18.12;55.17;101621.06;5043984;28;1610;-74
2023/06/09 05:21:14;;;;;;;;;;;;;;;18.09;55.29;101612.53;5045331;28;1471;-74
2023/06/09 05:23:40;;;;;;;;;;;;;;;18.09;55.56;101624.28;5034672;28;1451;-73
2023/06/09 05:26:07;;;;;;;;;;;;;;;18.07;55.40;101617.41;5045054;28;991;-74
2023/06/09 05:28:34;;;;;;;;;;;;;;;18.05;55.44;101622.25;5044247;28;1446;-74
2023/06/09 05:31:01;;;;;;;;;;;;;;;18.11;55.30;101627.56;5045196;28;1595;-73
2023/06/09 05:33:28;;;;;;;;;;;;;;;18.05;55.42;101628.53;5045403;28;1902;-74
2023/06/09 05:35:54;;;;;;;;;;;;;;;18.07;55.41;101633.75;5044951;28;1015;-74
2023/06/09 05:38:23;;;;;;;;;;;;;;;18.03;55.51;101629.84;5043986;28;1523;-74
2023/06/09 05:40:49;;;;;;;;;;;;;;;18.04;55.16;101634.25;5044611;28;1057;-76
2023/06/09 05:43:16;;;;;;;;;;;;;;;18.02;55.14;101631.75;5044451;28;999;-74
2023/06/09 05:45:42;;;;;;;;;;;;;;;18.05;55.13;101631.25;5032603;28;1157;-74
2023/06/09 05:48:09;;;;;;;;;;;;;;;18.04;54.93;101636.97;5045652;28;1049;-74
2023/06/09 05:50:37;;;;;;;;;;;;;;;18.02;55.27;101639.94;5044688;28;1709;-74
2023/06/09 05:53:04;;;;;;;;;;;;;;;18.01;55.09;101649.19;5044175;28;1902;-74
2023/06/09 05:55:30;;;;;;;;;;;;;;;18.05;55.19;101649.53;5033919;28;1011;-74
2023/06/09 05:58:00;;;;;;;;;;;;;;;18.02;55.04;101653.56;5043487;28;1522;-74
2023/06/09 06:00:29;;;;;;;;;;;;;;;18.00;55.10;101652.13;5043662;28;1086;-75
2023/06/09 06:02:55;;;;;;;;;;;;;;;17.99;55.25;101650.50;5043762;28;1074;-73
2023/06/09 06:05:22;;;;;;;;;;;;;;;18.02;55.19;101660.91;5033519;28;2048;-74
2023/06/09 06:07:48;;;;;;;;;;;;;;;18.00;55.07;101660.31;5043319;28;1526;-74
2023/06/09 06:10:15;;;;;;;;;;;;;;;17.98;55.04;101657.84;5044094;28;1085;-73
2023/06/09 06:12:41;;;;;;;;;;;;;;;17.99;55.22;101664.94;5033048;28;1047;-73
2023/06/09 06:15:08;;;;;;;;;;;;;;;17.97;55.20;101658.06;5043699;28;1934;-74
2023/06/09 06:17:35;;;;;;;;;;;;;;;17.96;55.22;101664.59;5033030;28;1477;-74
2023/06/09 06:20:01;;;;;;;;;;;;;;;17.97;55.20;101674.44;5033164;28;1253;-74
2023/06/09 06:22:28;;;;;;;;;;;;;;;17.96;55.22;101678.22;5043913;28;1373;-73
2023/06/09 06:24:54;;;;;;;;;;;;;;;17.95;55.10;101677.41;5042489;28;1070;-76
2023/06/09 06:27:22;;;;;;;;;;;;;;;17.93;55.08;101680.34;5043393;28;1464;-74
2023/06/09 06:29:48;;;;;;;;;;;;;;;17.94;55.17;101686.63;5032629;28;1491;-75
2023/06/09 06:32:15;;;;;;;;;;;;;;;17.93;54.92;101683.09;5043859;28;1225;-73
2023/06/09 06:34:42;;;;;;;;;;;;;;;17.95;55.07;101682.03;5030512;28;1922;-74
2023/06/09 06:37:08;;;;;;;;;;;;;;;17.93;55.08;101685.00;5043283;28;1515;-74
2023/06/09 06:39:35;;;;;;;;;;;;;;;17.94;54.96;101686.63;5043872;28;1467;-74
2023/06/09 06:42:01;;;;;;;;;;;;;;;17.93;54.95;101687.72;5043562;28;1074;-74
2023/06/09 06:44:28;;;;;;;;;;;;;;;17.93;55.06;101696.72;5044011;28;1010;-75
2023/06/09 06:46:54;;;;;;;;;;;;;;;17.91;55.04;101685.25;5042916;28;1507;-74
2023/06/09 06:49:21;;;;;;;;;;;;;;;17.95;54.83;101693.75;5042050;28;1543;-75
2023/06/09 06:51:47;;;;;;;;;;;;;;;17.91;54.86;101687.97;5043527;28;1085;-75
2023/06/09 06:54:14;;;;;;;;;;;;;;;17.92;54.98;101692.34;5043634;28;1977;-74
2023/06/09 06:56:40;;;;;;;;;;;;;;;17.90;54.76;101686.28;5043824;28;1481;-74
2023/06/09 06:59:07;;;;;;;;;;;;;;;17.91;55.02;101685.25;5043090;28;1019;-75
2023/06/09 07:01:37;;;;;;;;;;;;;;;17.89;55.01;101687.38;5043678;28;1011;-73
2023/06/09 07:04:03;;;;;;;;;;;;;;;17.93;54.86;101687.72;5044039;28;2047;-74
2023/06/09 07:06:32;;;;;;;;;;;;;;;17.90;54.91;101689.03;5043979;28;1484;-75
2023/06/09 07:08:58;;;;;;;;;;;;;;;17.91;54.79;101690.69;5043268;28;983;-74
2023/06/09 07:11:25;;;;;;;;;;;;;;;17.90;54.76;101688.19;5043323;28;1019;-74
2023/06/09 07:13:53;;;;;;;;;;;;;;;17.89;54.87;101692.81;5042264;28;1919;-74
2023/06/09 07:16:20;;;;;;;;;;;;;;;17.88;54.79;101693.91;5031231;28;2419;-73
2023/06/09 07:18:46;;;;;;;;;;;;;;;17.91;54.63;101696.16;5042442;28;1531;-74
2023/06/09 07:21:13;;;;;;;;;;;;;;;17.89;54.79;101695.56;5043032;28;1093;-73
2023/06/09 07:23:39;;;;;;;;;;;;;;;17.89;54.74;101686.56;5030865;28;1024;-74
2023/06/09 07:26:06;;;;;;;;;;;;;;;17.89;54.79;101686.56;5043901;28;1519;-75
2023/06/09 07:28:32;;;;;;;;;;;;;;;17.89;54.79;101687.38;5042796;28;1026;-74
2023/06/09 07:30:59;;;;;;;;;;;;;;;17.88;54.91;101687.59;5042733;28;1251;-73
2023/06/09 07:33:31;;;;;;;;;;;;;;;17.87;54.70;101689.50;5048128;28;1906;-73
2023/06/09 07:35:58;;;;;;;;;;;;;;;17.87;54.66;101694.94;5050707;28;1090;-75
2023/06/09 07:38:27;;;;;;;;;;;;;;;17.87;54.77;101681.31;5048431;28;1461;-73
2023/06/09 07:40:54;;;;;;;;;;;;;;;17.87;54.78;101686.78;5047644;28;1516;-75
2023/06/09 07:43:20;;;;;;;;;;;;;;;17.88;54.86;101682.16;5049210;28;1606;-75
2023/06/09 07:45:47;;;;;;;;;;;;;;;17.87;54.62;101685.97;5051108;28;1219;-75
2023/06/09 07:48:13;;;;;;;;;;;;;;;17.87;54.63;101678.59;5030312;28;1504;-76
2023/06/09 07:50:40;;;;;;;;;;;;;;;17.88;54.76;101682.16;5048600;28;1444;-73
2023/06/09 07:53:06;;;;;;;;;;;;;;;17.87;54.53;101681.31;5050270;28;1058;-74
2023/06/09 07:55:33;;;;;;;;;;;;;;;17.87;54.87;101680.50;5031946;28;1922;-74
2023/06/09 07:57:59;;;;;;;;;;;;;;;17.87;54.66;101681.31;5032631;28;1705;-74
2023/06/09 08:00:26;;;;;;;;;;;;;;;17.86;54.65;101671.50;5049654;28;1034;-75
2023/06/09 08:02:53;;;;;;;;;;;;;;;17.87;54.60;101675.88;5032655;28;1558;-76
2023/06/09 08:05:20;;;;;;;;;;;;;;;17.86;54.74;101682.41;5049651;28;1003;-75
2023/06/09 08:07:47;;;;;;;;;;;;;;;17.87;54.61;101688.69;5049772;28;1038;-74
2023/06/09 08:10:13;;;;;;;;;;;;;;;17.87;54.67;101688.69;5050315;28;1054;-75
2023/06/09 08:12:40;;;;;;;;;;;;;;;17.88;54.66;101693.06;5033413;28;1125;-75
2023/06/09 08:15:06;;;;;;;;;;;;;;;17.87;54.68;101691.41;5049690;28;1914;-74
2023/06/09 08:17:33;;;;;;;;;;;;;;;17.89;54.74;101686.56;5049414;28;1094;-75
2023/06/09 08:19:59;;;;;;;;;;;;;;;17.87;54.54;101675.06;5032254;28;1354;-75
2023/06/09 08:22:26;;;;;;;;;;;;;;;17.87;54.71;101680.50;5050287;28;1181;-74
2023/06/09 08:24:52;;;;;;;;;;;;;;;17.86;54.68;101684.31;5030224;28;1556;-73
2023/06/09 08:27:19;;;;;;;;;;;;;;;17.87;54.49;101685.97;5050374;28;1070;-75
2023/06/09 08:29:45;;;;;;;;;;;;;;;17.88;54.44;101679.44;5049328;28;991;-74
2023/06/09 08:32:12;;;;;;;;;;;;;;;17.87;54.68;101685.97;5045718;28;1260;-74
2023/06/09 08:34:38;;;;;;;;;;;;;;;17.87;54.44;101677.78;5029598;28;1977;-74
2023/06/09 08:37:05;;;;;;;;;;;;;;;17.87;54.64;101677.78;5034759;28;1366;-75
2023/06/09 08:39:31;;;;;;;;;;;;;;;17.87;54.48;101675.88;5046084;28;1223;-75
2023/06/09 08:41:58;;;;;;;;;;;;;;;17.86;54.62;101679.69;5046583;28;1113;-73
2023/06/09 08:44:25;;;;;;;;;;;;;;;17.87;54.54;101678.59;5029790;28;1482;-76
2023/06/09 08:46:52;;;;;;;;;;;;;;;17.87;54.58;101675.88;5041516;28;1059;-76
2023/06/09 08:49:19;;;;;;;;;;;;;;;17.86;54.54;101673.41;5033987;28;1117;-73
2023/06/09 08:51:46;;;;;;;;;;;;;;;17.87;54.58;101664.16;5045520;28;1003;-74
2023/06/09 08:54:13;;;;;;;;;;;;;;;17.87;54.60;101675.88;5045776;28;1921;-74
2023/06/09 08:56:40;;;;;;;;;;;;;;;17.86;54.69;101676.97;5034711;28;1299;-74
2023/06/09 08:59:06;;;;;;;;;;;;;;;17.87;54.43;101669.59;5045422;28;1030;-74
2023/06/09 09:01:36;;;;;;;;;;;;;;;17.86;54.68;101676.97;5033428;28;1523;-75
2023/06/09 09:04:02;;;;;;;;;;;;;;;17.87;54.38;101673.16;5045392;28;1117;-74
2023/06/09 09:06:29;;;;;;;;;;;;;;;17.88;54.49;101668.53;5044819;28;1007;-76
2023/06/09 09:08:55;;;;;;;;;;;;;;;17.87;54.30;101675.06;5033800;28;2273;-74
2023/06/09 09:11:22;;;;;;;;;;;;;;;17.87;54.38;101673.16;5044665;28;1492;-73
2023/06/09 09:13:49;;;;;;;;;;;;;;;17.87;54.42;101673.16;5032727;28;1979;-75
2023/06/09 09:16:15;;;;;;;;;;;;;;;17.87;54.54;101673.16;5045525;28;1078;-74
2023/06/09 09:18:42;;;;;;;;;;;;;;;17.88;54.40;101671.25;5033766;28;1074;-73
2023/06/09 09:21:08;;;;;;;;;;;;;;;17.88;54.39;101668.53;5045431;28;1204;-76
2023/06/09 09:23:35;;;;;;;;;;;;;;;17.88;54.49;101671.25;5045163;28;1535;-74
2023/06/09 09:26:02;;;;;;;;;;;;;;;17.89;54.45;101671.03;5045844;28;1595;-75
2023/06/09 09:28:29;;;;;;;;;;;;;;;17.88;54.46;101658.47;5044540;28;975;-75
2023/06/09 09:30:56;;;;;;;;;;;;;;;17.89;54.44;101664.75;5044847;28;1046;-75
2023/06/09 09:33:22;;;;;;;;;;;;;;;17.89;54.46;101657.41;5045069;28;1444;-75
2023/06/09 09:35:49;;;;;;;;;;;;;;;17.89;54.58;101665.56;5044515;28;1915;-75
2023/06/09 09:38:16;;;;;;;;;;;;;;;17.89;54.41;101676.47;5044700;28;1089;-75
2023/06/09 09:40:43;;;;;;;;;;;;;;;17.90;54.74;101660.94;5044590;28;1034;-73
2023/06/09 09:43:10;;;;;;;;;;;;;;;17.90;54.44;101659.03;5031895;28;1552;-75
2023/06/09 09:45:38;;;;;;;;;;;;;;;17.90;54.66;101666.41;5044296;28;1442;-75
2023/06/09 09:48:04;;;;;;;;;;;;;;;17.91;54.71;101662.59;5043874;28;1074;-73
2023/06/09 09:50:31;;;;;;;;;;;;;;;17.90;54.65;101656.31;5043958;28;1006;-75
2023/06/09 09:52:58;;;;;;;;;;;;;;;17.91;54.59;101660.72;5045383;28;1444;-73
2023/06/09 09:55:25;;;;;;;;;;;;;;;17.92;54.51;101651.47;5034415;28;1985;-73
2023/06/09 09:57:51;;;;;;;;;;;;;;;17.92;54.64;101650.63;5044806;28;1242;-74
2023/06/09 10:00:19;;;;;;;;;;;;;;;17.93;54.52;101649.56;5043515;28;999;-74
2023/06/09 10:02:45;;;;;;;;;;;;;;;17.92;54.70;101640.56;5030648;28;1492;-75
2023/06/09 10:05:14;;;;;;;;;;;;;;;17.93;54.72;101647.66;5044591;28;1578;-74
2023/06/09 10:07:42;;;;;;;;;;;;;;;17.95;54.73;101652.06;5044375;28;995;-74
2023/06/09 10:10:09;;;;;;;;;;;;;;;17.93;54.81;101642.22;5045009;28;1352;-75
2023/06/09 10:12:36;;;;;;;;;;;;;;;17.95;54.74;101647.44;5044412;28;1503;-74
2023/06/09 10:15:03;;;;;;;;;;;;;;;17.94;54.59;101648.47;5032189;28;1989;-75
2023/06/09 10:17:29;;;;;;;;;;;;;;;17.96;54.67;101646.34;5030662;28;1083;-77
2023/06/09 10:19:56;;;;;;;;;;;;;;;17.96;54.60;101651.81;5044032;28;1077;-75
2023/06/09 10:22:22;;;;;;;;;;;;;;;17.98;54.61;101643.41;5033058;28;1575;-74
2023/06/09 10:24:50;;;;;;;;;;;;;;;17.98;54.64;101641.50;5034492;28;1078;-75
2023/06/09 10:27:16;;;;;;;;;;;;;;;17.99;54.65;101639.59;5044105;28;966;-75
2023/06/09 10:29:43;;;;;;;;;;;;;;;17.99;54.86;101631.41;5033025;28;1019;-74
2023/06/09 10:32:09;;;;;;;;;;;;;;;17.99;54.71;101629.50;5043359;28;1476;-75
2023/06/09 10:34:36;;;;;;;;;;;;;;;18.00;54.92;101630.34;5043574;28;1971;-74
2023/06/09 10:37:04;;;;;;;;;;;;;;;17.99;54.95;101626.78;5043196;28;987;-74
2023/06/09 10:39:30;;;;;;;;;;;;;;;18.01;54.80;101621.94;5031437;28;1425;-74
2023/06/09 10:41:57;;;;;;;;;;;;;;;18.02;54.93;101623.56;5043264;28;1207;-73
2023/06/09 10:44:23;;;;;;;;;;;;;;;18.01;55.03;101613.75;5042872;28;1018;-74
2023/06/09 10:46:50;;;;;;;;;;;;;;;18.02;54.82;101612.66;5043471;28;1038;-74
2023/06/09 10:49:17;;;;;;;;;;;;;;;18.03;54.92;101614.34;5043410;28;1490;-74
2023/06/09 10:51:45;;;;;;;;;;;;;;;18.04;54.97;101607.81;5031336;28;1034;-74
2023/06/09 10:54:12;;;;;;;;;;;;;;;18.05;54.79;101608.63;5043392;28;1969;-74
2023/06/09 10:56:40;;;;;;;;;;;;;;;18.07;55.06;101601.88;5043303;28;1315;-74
2023/06/09 10:59:06;;;;;;;;;;;;;;;18.07;55.05;101610.03;5043552;28;1035;-75
2023/06/09 11:01:33;;;;;;;;;;;;;;;18.08;55.06;101602.69;5044163;28;1366;-74
2023/06/09 11:03:59;;;;;;;;;;;;;;;18.08;55.03;101603.50;5032692;28;1275;-75
2023/06/09 11:06:26;;;;;;;;;;;;;;;18.08;54.88;101600.78;5043236;28;1076;-75
2023/06/09 11:08:52;;;;;;;;;;;;;;;18.09;54.85;101605.19;5031649;28;1557;-76
2023/06/09 11:11:19;;;;;;;;;;;;;;;18.10;55.14;101595.09;5042719;28;1014;-74
2023/06/09 11:13:46;;;;;;;;;;;;;;;18.11;54.88;101596.75;5043119;28;1050;-75
2023/06/09 11:16:12;;;;;;;;;;;;;;;18.11;54.94;101600.28;5042569;28;1977;-75
2023/06/09 11:18:39;;;;;;;;;;;;;;;18.13;54.97;101595.44;5044689;28;1019;-74
2023/06/09 11:21:06;;;;;;;;;;;;;;;18.13;55.04;101589.97;5032108;28;1125;-75
2023/06/09 11:23:32;;;;;;;;;;;;;;;18.14;55.13;101588.06;5043180;28;937;-74
2023/06/09 11:25:59;;;;;;;;;;;;;;;18.13;55.03;101584.53;5031730;28;1428;-74
2023/06/09 11:28:25;;;;;;;;;;;;;;;18.15;55.13;101582.41;5042590;28;983;-77
2023/06/09 11:30:52;;;;;;;;;;;;;;;18.18;55.10;101586.53;5042916;28;1042;-75
2023/06/09 11:33:18;;;;;;;;;;;;;;;18.18;55.08;101581.09;5029975;28;1210;-75
2023/06/09 11:35:45;;;;;;;;;;;;;;;18.19;55.21;101584.63;5030166;28;1918;-75
2023/06/09 11:38:11;;;;;;;;;;;;;;;18.19;55.22;101577.28;5029003;28;1489;-75
2023/06/09 11:40:38;;;;;;;;;;;;;;;18.19;55.25;101571.00;5030445;28;1211;-75
2023/06/09 11:43:05;;;;;;;;;;;;;;;18.21;55.24;101571.59;5014028;28;1106;-74
2023/06/09 11:45:31;;;;;;;;;;;;;;;18.20;55.13;101573.47;5029860;28;1083;-74
2023/06/09 11:47:59;;;;;;;;;;;;;;;18.22;55.08;101563.16;5028885;28;1536;-75
2023/06/09 11:50:26;;;;;;;;;;;;;;;18.22;55.07;101548.69;5012618;28;1059;-75
2023/06/09 11:52:52;;;;;;;;;;;;;;;18.25;55.33;101570.00;5030479;28;1106;-74
2023/06/09 11:55:19;;;;;;;;;;;;;;;18.25;55.24;101561.84;5013107;28;1911;-74
2023/06/09 11:57:46;;;;;;;;;;;;;;;18.25;55.23;101561.84;5028669;28;1622;-74
2023/06/09 12:00:14;;;;;;;;;;;;;;;18.26;55.30;101566.19;5013442;28;1090;-75
2023/06/09 12:02:41;;;;;;;;;;;;;;;18.29;55.39;101568.44;5030324;28;1043;-75
2023/06/09 12:05:07;;;;;;;;;;;;;;;18.29;55.25;101565.72;5029940;28;1082;-76
2023/06/09 12:07:34;;;;;;;;;;;;;;;18.28;55.62;101564.88;5014059;28;1533;-74
2023/06/09 12:10:00;;;;;;;;;;;;;;;18.30;55.25;101561.94;5033004;28;1063;-75
2023/06/09 12:12:27;;;;;;;;;;;;;;;18.31;55.56;101558.94;5029810;28;1239;-75
2023/06/09 12:14:53;;;;;;;;;;;;;;;18.33;55.46;101561.44;5029327;28;1903;-74
2023/06/09 12:17:20;;;;;;;;;;;;;;;18.32;55.33;101555.16;5012473;28;1502;-74
2023/06/09 12:19:46;;;;;;;;;;;;;;;18.34;55.58;101546.72;5030714;28;1075;-75
2023/06/09 12:22:13;;;;;;;;;;;;;;;18.35;55.45;101553.81;5029073;28;1111;-74
2023/06/09 12:24:39;;;;;;;;;;;;;;;18.36;55.55;101550.03;5033571;28;1413;-75
2023/06/09 12:27:06;;;;;;;;;;;;;;;18.36;55.48;101545.41;5033539;28;1020;-75
2023/06/09 12:29:33;;;;;;;;;;;;;;;18.38;55.63;101551.44;5034296;28;949;-75
2023/06/09 12:31:59;;;;;;;;;;;;;;;18.39;55.52;101555.81;5038841;28;1215;-75
2023/06/09 12:34:28;;;;;;;;;;;;;;;18.39;55.53;101553.09;5035149;28;1497;-75
2023/06/09 12:36:54;;;;;;;;;;;;;;;18.41;55.68;101555.53;5045720;28;1914;-75
2023/06/09 12:39:21;;;;;;;;;;;;;;;18.41;55.62;101552.81;5034275;28;1424;-75
2023/06/09 12:41:47;;;;;;;;;;;;;;;18.43;55.56;101549.84;5046748;28;1252;-73
2023/06/09 12:44:14;;;;;;;;;;;;;;;18.45;55.55;101537.63;5034298;28;1558;-73
2023/06/09 12:46:41;;;;;;;;;;;;;;;18.46;55.66;101543.91;5046193;28;1082;-76
2023/06/09 12:49:07;;;;;;;;;;;;;;;18.47;55.60;101540.94;5045510;28;1077;-75